Terminal Aerodrome Forecast
Issued by NWS Portland, OR

Home | Current Version | Previous Version | Text Only | Print | Product List | Glossary On
Versions: 1 2 3 4 5 6 7 8 9 10 11 12 13 14
000
FTUS46 KPQR 290520
TAFSLE
TAF
KSLE 290520Z 2906/3006 VRB04KT P6SM SCT250
     FM291300 VRB04KT P6SM SCT020
     FM291700 21006KT P6SM SCT250
     FM292300 25007KT P6SM FEW250=

USA.gov is the U.S. government's official web portal to all federal, state and local government web resources and services.